Latest Coastal Weather Observations for Troughton Island

IDW60701

Issued at 6:53 am WST Tuesday 28 February 2017 (issued every 10 minutes, with the page automatically refreshed every 10 minutes)

About coastal observations | Map of coastal stations | Coastal observations for WA | Marine services | Other Formats
Station Details ID: 001007 Name: TROUGHTON ISLAND Lat: -13.75 Lon: 126.15 Height: 6.0 m
Data from the previous 72 hours. | See also: Recent months at Troughton Island
Date/Time
WST
Temp
°C
Wind Pressure Rain since
9am
mm
Weather Cloud Vis
km
Sea
Height
m
Swell
Dir  Spd
kts
Gust
kts
hPa Trend Height
m
Period
s
Dir
28/06:30am 29.7 SE 7 8 1008.7 - 0.0 - - - - - - -
28/06:00am 28.5 SE 6 8 1008.6 - 0.0 - - - - - - -
28/05:30am 28.0 SE 6 7 1008.5 - 0.0 - - - - - - -
28/05:00am 27.9 SSE 3 7 1008.4 - 0.0 - - - - - - -
28/04:30am 28.0 S 5 6 1008.2 - 0.0 - - - - - - -
28/04:00am 28.4 S 7 8 1008.2 - 0.0 - - - - - - -
28/03:30am 28.2 S 6 7 1008.0 - 0.0 - - - - - - -
28/03:00am 28.3 S 7 8 1007.9 - 0.0 - - - - - - -
28/02:30am 28.4 S 8 10 1008.1 - 0.0 - - - - - - -
28/02:00am 28.6 SSW 9 11 1008.2 - 0.0 - - - - - - -
28/01:30am 28.8 SSW 10 13 1008.2 - 0.0 - - - - - - -
28/01:00am 28.8 SW 10 12 1008.4 - 0.0 - - - - - - -
28/12:30am 28.7 SW 9 11 1008.8 - 0.0 - - - - - - -
28/12:00am 28.7 WSW 10 11 1009.3 - 0.0 - - - - - - -
 
Date/Time
WST
Temp
°C
Wind Pressure Rain since
9am
mm
Weather Cloud Vis
km
Sea
Height
m
Swell
Dir  Spd
kts
Gust
kts
hPa Trend Height
m
Period
s
Dir
27/11:30pm 28.8 SW 9 10 1009.6 - 0.0 - - - - - - -
27/11:00pm 29.0 SW 9 11 1009.9 - 0.0 - - - - - - -
27/10:30pm 29.1 SW 7 9 1010.2 - 0.0 - - - - - - -
27/10:00pm 29.3 WSW 9 10 1010.3 - 0.0 - - - - - - -
27/09:30pm 29.3 WSW 8 9 1010.1 - 0.0 - - - - - - -
27/09:00pm 29.4 WSW 9 11 1009.8 - 0.0 - - - - - - -
27/08:30pm 29.5 WSW 9 11 1009.5 - 0.0 - - - - - - -
27/08:00pm 29.3 W 9 10 1009.1 - 0.0 - - - - - - -
27/07:30pm 29.4 WSW 9 11 1009.0 - 0.0 - - - - - - -
27/07:00pm 29.4 W 8 11 1008.6 - 0.0 - - - - - - -
27/06:30pm 29.5 W 6 8 1008.0 - 0.0 - - - - - - -
27/06:00pm 29.9 WSW 8 9 1007.6 - 0.0 - - - - - - -
27/05:30pm 30.5 WSW 8 10 1007.3 - 0.0 - - - - - - -
27/05:00pm 31.2 WSW 8 10 1007.4 - 0.0 - - - - - - -
27/04:30pm 31.6 WSW 8 10 1006.6 - 0.0 - - - - - - -
27/04:00pm 32.1 WSW 8 9 1006.8 - 0.0 - - - - - - -
27/03:30pm 32.3 WSW 7 8 1007.0 - 0.0 - - - - - - -
27/03:00pm 32.5 WSW 9 10 1007.3 - 0.0 - - - - - - -
27/02:30pm 32.4 WSW 10 11 1007.5 - 0.0 - - - - - - -
27/02:00pm 32.4 WSW 11 13 1007.9 - 0.0 - - - - - - -
27/01:30pm 32.3 WSW 10 12 1008.2 - 0.0 - - - - - - -
27/01:00pm 32.0 WSW 10 11 1008.5 - 0.0 - - - - - - -
27/12:30pm 32.5 SW 9 11 1008.9 - 0.0 - - - - - - -
27/12:00pm 31.9 SW 7 9 1009.1 - 0.0 - - - - - - -
27/11:30am 32.2 SW 8 10 1009.3 - 0.0 - - - - - - -
27/11:00am 32.0 WSW 8 11 1009.5 - 0.0 - - - - - - -
27/10:30am 31.3 S 7 8 1009.8 - 0.0 - - - - - - -
27/10:00am 30.9 SW 6 7 1010.3 - 0.0 - - - - - - -
27/09:30am 30.8 SW 6 7 1010.6 - 0.0 - - - - - - -
27/09:00am 30.4 SW 8 10 1010.7 - 0.0 - - - - - - -
27/08:30am 31.0 SW 7 8 1010.7 - 0.0 - - - - - - -
27/08:00am 30.1 W 6 8 1010.4 - 0.0 - - - - - - -
27/07:30am 29.8 SSW 4 5 1010.8 - 0.0 - - - - - - -
27/07:00am 29.6 SE 6 8 1010.8 - 0.0 - - - - - - -
27/06:30am 28.6 SSE 9 12 1010.1 - 0.0 - - - - - - -
27/06:00am 27.0 SSE 15 21 1009.7 - 0.0 - - - - - - -
27/05:30am 28.6 SSE 11 15 1009.8 - 0.0 - - - - - - -
27/05:00am 28.5 S 9 11 1009.2 - 0.0 - - - - - - -
27/04:30am 28.5 SSW 11 12 1009.0 - 0.0 - - - - - - -
27/04:00am 28.6 SW 10 11 1008.9 - 0.0 - - - - - - -
27/03:30am 28.6 SW 11 12 1008.8 - 0.0 - - - - - - -
27/03:00am 28.7 WSW 11 13 1008.9 - 0.0 - - - - - - -
27/02:30am 28.6 WSW 12 14 1008.5 - 0.0 - - - - - - -
27/02:00am 28.7 WSW 12 14 1008.4 - 0.0 - - - - - - -
27/01:30am 28.6 WSW 12 13 1008.7 - 0.0 - - - - - - -
27/01:00am 28.7 WSW 11 13 1008.9 - 0.0 - - - - - - -
27/12:30am 28.8 WSW 10 12 1009.4 - 0.0 - - - - - - -
27/12:00am 28.7 WSW 10 11 1009.7 - 0.0 - - - - - - -
 
Date/Time
WST
Temp
°C
Wind Pressure Rain since
9am
mm
Weather Cloud Vis
km
Sea
Height
m
Swell
Dir  Spd
kts
Gust
kts
hPa Trend Height
m
Period
s
Dir
26/11:30pm 28.7 SW 9 11 1010.1 - 0.0 - - - - - - -
26/11:00pm 28.9 WSW 9 11 1010.2 - 0.0 - - - - - - -
26/10:30pm 29.0 WSW 9 11 1010.4 - 0.0 - - - - - - -
26/10:00pm 29.0 W 9 11 1010.5 - 0.0 - - - - - - -
26/09:30pm 29.0 W 9 10 1010.7 - 0.0 - - - - - - -
26/09:00pm 28.9 WNW 6 8 1010.6 - 0.0 - - - - - - -
26/08:30pm 29.0 W 7 9 1010.3 - 0.0 - - - - - - -
26/08:00pm 29.0 W 8 9 1010.0 - 0.0 - - - - - - -
26/07:30pm 29.0 WNW 9 11 1009.3 - 0.0 - - - - - - -
26/07:00pm 29.0 WNW 9 11 1008.9 - 0.0 - - - - - - -
26/06:30pm 29.1 WNW 9 11 1008.1 - 0.0 - - - - - - -
26/06:00pm 29.2 NW 10 11 1007.6 - 0.0 - - - - - - -
26/05:30pm 29.8 WNW 9 11 1007.2 - 0.0 - - - - - - -
26/05:00pm 30.1 WNW 9 11 1007.0 - 0.0 - - - - - - -
26/04:30pm 30.2 WNW 10 12 1006.9 - 0.0 - - - - - - -
26/04:00pm 30.7 NW 12 14 1006.6 - 0.0 - - - - - - -
26/03:30pm 31.3 WNW 11 13 1006.9 - 0.0 - - - - - - -
26/03:00pm 31.1 WNW 10 11 1007.1 - 0.0 - - - - - - -
26/02:30pm 31.7 WNW 9 11 1007.3 - 0.0 - - - - - - -
26/02:00pm 31.3 WNW 8 9 1007.7 - 0.0 - - - - - - -
26/01:30pm 31.1 NW 8 9 1007.9 - 0.0 - - - - - - -
26/01:00pm 30.8 NW 8 10 1008.2 - 0.0 - - - - - - -
26/12:30pm 30.6 NW 7 8 1008.6 - 0.0 - - - - - - -
26/12:00pm 30.8 NW 6 8 1009.0 - 0.0 - - - - - - -
26/11:30am 30.3 NW 7 8 1009.4 - 0.0 - - - - - - -
26/11:00am 30.6 W 5 6 1009.6 - 0.0 - - - - - - -
26/10:30am 30.0 WNW 4 5 1009.9 - 0.0 - - - - - - -
26/10:00am 30.7 W 4 5 1009.9 - 0.0 - - - - - - -
26/09:30am 31.3 S 3 5 1010.0 - 0.0 - - - - - - -
26/09:00am 31.0 SW 5 6 1010.3 - 0.0 - - - - - - -
26/08:30am 30.4 SSW 4 5 1010.1 - 0.0 - - - - - - -
26/08:00am 29.8 WSW 3 4 1009.8 - 0.0 - - - - - - -
26/07:30am 29.8 ESE 3 5 1009.7 - 0.0 - - - - - - -
26/07:00am 29.4 SE 4 5 1009.6 - 0.0 - - - - - - -
26/06:30am 28.4 CALM 0 0 1009.2 - 0.0 - - - - - - -
26/06:00am 27.3 CALM 0 0 1008.9 - 0.0 - - - - - - -
26/05:30am 27.1 NNW 2 3 1008.9 - 0.0 - - - - - - -
26/05:00am 27.0 NNW 3 3 1008.8 - 0.0 - - - - - - -
26/04:30am 27.2 NNW 3 4 1008.9 - 0.0 - - - - - - -
26/04:00am 27.0 NNW 4 5 1008.6 - 0.0 - - - - - - -
26/03:30am 27.8 N 4 5 1008.3 - 0.0 - - - - - - -
26/03:00am 27.1 NNW 4 5 1008.3 - 0.0 - - - - - - -
26/02:30am 26.8 NNW 5 6 1008.6 - 0.0 - - - - - - -
26/02:00am 27.3 NW 7 8 1008.7 - 0.0 - - - - - - -
26/01:30am 27.4 NNW 7 8 1009.1 - 0.0 - - - - - - -
26/01:00am 27.4 NNW 6 7 1009.6 - 0.0 - - - - - - -
26/12:30am 27.6 NW 6 8 1010.0 - 0.0 - - - - - - -
26/12:00am 28.1 N 5 5 1010.1 - 0.0 - - - - - - -
 
Date/Time
WST
Temp
°C
Wind Pressure Rain since
9am
mm
Weather Cloud Vis
km
Sea
Height
m
Swell
Dir  Spd
kts
Gust
kts
hPa Trend Height
m
Period
s
Dir
25/11:30pm 27.9 NNW 6 7 1010.5 - 0.0 - - - - - - -
25/11:00pm 28.5 N 6 7 1010.7 - 0.0 - - - - - - -
25/10:30pm 28.3 NNW 6 8 1010.9 - 0.0 - - - - - - -
25/10:00pm 28.5 N 5 7 1010.9 - 0.0 - - - - - - -
25/09:30pm 28.6 N 4 5 1011.0 - 0.0 - - - - - - -
25/09:00pm 28.5 NNW 5 6 1010.9 - 0.0 - - - - - - -
25/08:30pm 28.3 NNW 6 8 1010.7 - 0.0 - - - - - - -
25/08:00pm 28.5 NNW 6 8 1010.7 - 0.0 - - - - - - -
25/07:30pm 28.9 N 7 9 1010.1 - 0.0 - - - - - - -
25/07:00pm 29.1 N 7 9 1009.5 - 0.0 - - - - - - -
25/06:30pm 29.2 N 7 10 1009.1 - 0.0 - - - - - - -
25/06:00pm 29.3 N 8 10 1008.6 - 0.0 - - - - - - -
25/05:30pm 29.5 N 7 10 1008.2 - 0.0 - - - - - - -
25/05:00pm 29.7 N 7 9 1008.0 - 0.0 - - - - - - -
25/04:30pm 29.8 N 8 10 1007.7 - 0.0 - - - - - - -
25/04:00pm 30.5 N 8 11 1007.7 - 0.0 - - - - - - -
25/03:30pm 30.1 N 8 11 1007.8 - 0.0 - - - - - - -
25/03:00pm 31.3 NNW 8 12 1008.1 - 0.0 - - - - - - -
25/02:30pm 31.1 N 10 12 1008.5 - 0.0 - - - - - - -
25/02:00pm 31.6 NNW 9 12 1008.8 - 0.0 - - - - - - -
25/01:30pm 32.0 N 9 12 1009.1 - 0.0 - - - - - - -
25/01:00pm 31.6 NNW 9 11 1009.2 - 0.0 - - - - - - -
25/12:30pm 30.5 N 8 11 1009.6 - 0.0 - - - - - - -
25/12:00pm 30.9 NNW 8 10 1010.0 - 0.0 - - - - - - -
25/11:30am 30.5 NNW 8 11 1010.5 - 0.0 - - - - - - -
25/11:00am 31.7 NNW 8 11 1010.7 - 0.0 - - - - - - -
25/10:30am 31.8 NNW 9 12 1010.7 - 0.0 - - - - - - -
25/10:00am 30.9 NNW 9 11 1010.9 - 0.0 - - - - - - -
25/09:30am 31.3 NW 9 11 1010.8 - 0.0 - - - - - - -
25/09:00am 30.8 NNW 8 10 1010.8 - 0.0 - - - - - - -
25/08:30am 30.6 NNW 11 13 1010.8 - 0.0 - - - - - - -
25/08:00am 30.4 NNW 9 11 1010.6 - 0.0 - - - - - - -
25/07:30am 30.1 NNW 8 9 1010.5 - 0.0 - - - - - - -
25/07:00am 29.7 NW 8 9 1010.2 - 0.0 - - - - - - -

Other Formats:

Comma delimited format used in spreadsheet applications
http://www.bom.gov.au/fwo/IDW60701/IDW60701.94102.axf

JavaScript Object Notation format (JSON) in row-major order
http://www.bom.gov.au/fwo/IDW60701/IDW60701.94102.json